createdAt,value
2019-06-01T00:00:11.035Z,15.39
2019-06-01T00:02:30.488Z,15.45
2019-06-01T00:05:00.825Z,15.47
2019-06-01T00:07:32.300Z,15.38
2019-06-01T00:10:02.583Z,15.30
2019-06-01T00:12:32.866Z,15.27
2019-06-01T00:15:03.190Z,15.17
2019-06-01T00:17:34.518Z,15.08
2019-06-01T00:20:04.945Z,15.02
2019-06-01T00:22:35.273Z,14.97
2019-06-01T00:25:06.068Z,14.92
2019-06-01T00:27:36.342Z,14.85
2019-06-01T00:30:07.621Z,14.84
2019-06-01T00:32:38.275Z,14.75
2019-06-01T00:35:08.921Z,14.67
2019-06-01T00:37:39.207Z,14.66
2019-06-01T00:40:09.589Z,14.62
2019-06-01T00:42:39.872Z,14.55
2019-06-01T00:45:10.582Z,14.49
2019-06-01T00:47:42.570Z,14.47
2019-06-01T00:50:13.154Z,14.50
2019-06-01T00:52:43.456Z,14.51
2019-06-01T00:55:15.239Z,14.49
2019-06-01T00:57:45.762Z,14.42
2019-06-01T01:00:16.239Z,14.37
2019-06-01T01:02:46.482Z,14.34
2019-06-01T01:05:19.779Z,14.25
2019-06-01T01:07:51.313Z,14.24
2019-06-01T01:10:22.116Z,14.18
2019-06-01T01:13:15.121Z,14.12
2019-06-01T01:15:45.374Z,14.11
2019-06-01T01:18:15.786Z,14.06
2019-06-01T01:20:46.045Z,13.97
2019-06-01T01:23:16.720Z,13.92
2019-06-01T01:25:46.976Z,13.89
2019-06-01T01:28:17.313Z,13.90
2019-06-01T01:31:03.022Z,13.85
2019-06-01T01:33:19.591Z,13.85
2019-06-01T01:35:49.862Z,13.81
2019-06-01T01:38:20.193Z,13.80
2019-06-01T01:40:52.089Z,13.75
2019-06-01T01:43:23.071Z,13.75
2019-06-01T01:45:53.310Z,13.75
2019-06-01T01:48:23.963Z,13.69
2019-06-01T01:50:56.401Z,13.64
2019-06-01T01:53:27.108Z,13.62
2019-06-01T01:55:57.386Z,13.62
2019-06-01T01:58:27.625Z,13.57
2019-06-01T02:01:16.269Z,13.54
2019-06-01T02:03:32.251Z,13.54
2019-06-01T02:06:03.365Z,13.53
2019-06-01T02:08:33.920Z,13.50
2019-06-01T02:11:04.206Z,13.46
2019-06-01T02:13:35.608Z,13.40
2019-06-01T02:19:36.777Z,13.22
2019-06-01T02:22:07.020Z,13.18
2019-06-01T02:24:37.266Z,13.12
2019-06-01T02:27:07.855Z,13.06
2019-06-01T02:29:38.117Z,13.03
2019-06-01T02:32:08.456Z,12.99
2019-06-01T02:34:38.682Z,12.94
2019-06-01T02:37:09.361Z,12.92
2019-06-01T02:39:39.900Z,12.89
2019-06-01T02:42:11.882Z,12.85
2019-06-01T02:44:42.157Z,12.82
2019-06-01T02:47:12.405Z,12.84
2019-06-01T02:49:42.662Z,12.80
2019-06-01T02:52:12.956Z,12.83
2019-06-01T02:54:44.324Z,12.88
2019-06-01T02:57:14.650Z,12.89
2019-06-01T02:59:45.720Z,12.89
2019-06-01T03:02:16.484Z,12.91
2019-06-01T03:04:47.786Z,12.91
2019-06-01T03:07:19.728Z,12.94
2019-06-01T03:09:50.513Z,12.88
2019-06-01T03:12:22.222Z,12.91
2019-06-01T03:14:54.891Z,12.84
2019-06-01T03:17:25.463Z,12.80
2019-06-01T03:19:57.682Z,12.75
2019-06-01T03:22:29.994Z,12.72
2019-06-01T03:25:03.854Z,12.67
2019-06-01T03:27:36.469Z,12.60
2019-06-01T03:30:11.325Z,12.51
2019-06-01T03:32:39.241Z,12.48
2019-06-01T03:35:10.627Z,12.51
2019-06-01T03:37:40.890Z,12.46
2019-06-01T03:40:23.185Z,12.40
2019-06-01T03:42:43.360Z,12.35
2019-06-01T03:45:13.690Z,12.26
2019-06-01T03:47:44.569Z,12.25
2019-06-01T03:50:14.950Z,12.19
2019-06-01T03:52:45.225Z,12.19
2019-06-01T03:55:15.505Z,12.25
2019-06-01T03:57:46.022Z,12.27
2019-06-01T04:00:16.478Z,12.31
2019-06-01T04:02:46.751Z,12.31
2019-06-01T04:05:18.033Z,12.29
2019-06-01T04:07:48.262Z,12.36
2019-06-01T04:10:18.645Z,12.44
2019-06-01T04:12:48.946Z,12.43
2019-06-01T04:15:19.229Z,12.48
2019-06-01T04:17:49.791Z,12.45
2019-06-01T04:20:20.056Z,12.39
2019-06-01T04:22:50.354Z,12.38
2019-06-01T04:25:20.967Z,12.42
2019-06-01T04:27:51.300Z,12.46
2019-06-01T04:30:26.969Z,12.48
2019-06-01T04:32:57.212Z,12.55
2019-06-01T04:35:27.493Z,12.61
2019-06-01T04:37:57.834Z,12.70
2019-06-01T04:40:28.111Z,12.79
2019-06-01T04:42:58.660Z,12.91
2019-06-01T04:45:28.997Z,12.97
2019-06-01T04:47:59.194Z,13.00
2019-06-01T04:50:29.513Z,13.08
2019-06-01T04:53:00.280Z,13.15
2019-06-01T04:55:30.919Z,13.25
2019-06-01T04:58:01.202Z,13.33
2019-06-01T05:00:31.530Z,13.38
2019-06-01T05:03:05.521Z,13.45
2019-06-01T05:05:33.731Z,13.57
2019-06-01T05:08:05.207Z,13.66
2019-06-01T05:10:35.698Z,13.67
2019-06-01T05:13:05.917Z,13.72
2019-06-01T05:15:36.125Z,13.72
2019-06-01T05:18:07.850Z,13.74
2019-06-01T05:20:38.814Z,13.79
2019-06-01T05:23:10.583Z,13.83
2019-06-01T05:25:40.866Z,13.93
2019-06-01T05:28:11.478Z,14.04
2019-06-01T05:30:42.858Z,14.15
2019-06-01T05:33:29.267Z,14.27
2019-06-01T05:35:45.019Z,14.40
2019-06-01T05:38:16.502Z,14.49
2019-06-01T05:40:47.253Z,14.55
2019-06-01T05:43:19.431Z,14.63
2019-06-01T05:45:49.460Z,14.74
2019-06-01T05:48:25.112Z,14.83
2019-06-01T05:50:51.758Z,14.90
2019-06-01T05:53:23.087Z,14.98
2019-06-01T05:55:53.514Z,15.12
2019-06-01T05:58:23.882Z,15.23
2019-06-01T06:00:54.675Z,15.27
2019-06-01T06:03:39.508Z,15.35
2019-06-01T06:05:58.198Z,15.45
2019-06-01T06:08:28.447Z,15.52
2019-06-01T06:10:58.742Z,15.60
2019-06-01T06:13:28.966Z,15.67
2019-06-01T06:15:59.203Z,15.78
2019-06-01T06:18:29.412Z,15.87
2019-06-01T06:20:59.657Z,15.92
2019-06-01T06:23:29.911Z,15.99
2019-06-01T06:26:00.295Z,16.06
2019-06-01T06:28:31.486Z,16.15
2019-06-01T06:31:02.400Z,16.23
2019-06-01T06:33:32.674Z,16.29
2019-06-01T06:36:02.950Z,16.39
2019-06-01T06:38:33.584Z,16.52
2019-06-01T06:41:03.922Z,16.60
2019-06-01T06:43:34.324Z,16.70
2019-06-01T06:46:04.687Z,16.82
2019-06-01T06:48:35.224Z,16.92
2019-06-01T06:51:05.475Z,17.00
2019-06-01T06:53:36.095Z,17.08
2019-06-01T06:56:06.314Z,17.19
2019-06-01T06:58:36.600Z,17.30
2019-06-01T07:01:06.890Z,17.43
2019-06-01T07:03:37.160Z,17.53
2019-06-01T07:06:07.770Z,17.70
2019-06-01T07:08:38.429Z,17.80
2019-06-01T07:11:11.759Z,17.86
2019-06-01T07:13:40.781Z,17.97
2019-06-01T07:16:11.498Z,18.05
2019-06-01T07:18:41.791Z,18.14
2019-06-01T07:21:12.323Z,18.24
2019-06-01T07:23:42.813Z,18.39
2019-06-01T07:26:13.199Z,18.44
2019-06-01T07:28:44.616Z,18.62
2019-06-01T07:31:15.135Z,18.74
2019-06-01T07:33:45.414Z,18.80
2019-06-01T07:36:15.971Z,18.81
2019-06-01T07:38:46.274Z,18.81
2019-06-01T07:41:16.577Z,18.89
2019-06-01T07:43:47.456Z,19.03
2019-06-01T07:46:19.019Z,19.14
2019-06-01T07:48:49.297Z,19.30
2019-06-01T07:51:20.987Z,19.34
2019-06-01T07:53:51.422Z,19.46
2019-06-01T07:56:22.623Z,19.62
2019-06-01T07:58:54.175Z,19.76
2019-06-01T08:01:25.630Z,19.92
2019-06-01T08:03:56.818Z,19.97
2019-06-01T08:06:28.267Z,20.00
2019-06-01T08:08:59.344Z,20.14
2019-06-01T08:11:33.513Z,20.29
2019-06-01T08:14:02.194Z,20.44
2019-06-01T08:16:32.505Z,20.60
2019-06-01T08:19:03.017Z,20.76
2019-06-01T08:21:33.594Z,20.83
2019-06-01T08:24:04.455Z,20.88
2019-06-01T08:26:35.363Z,20.98
2019-06-01T08:29:05.918Z,21.15
2019-06-01T08:31:36.502Z,21.39
2019-06-01T08:34:06.747Z,21.54
2019-06-01T08:36:37.553Z,21.60
2019-06-01T08:39:08.098Z,21.70
2019-06-01T08:41:38.446Z,21.64
2019-06-01T08:44:08.777Z,21.71
2019-06-01T08:46:39.394Z,21.81
2019-06-01T08:49:09.717Z,21.87
2019-06-01T08:51:41.095Z,22.08
2019-06-01T08:54:11.517Z,22.22
2019-06-01T08:56:41.809Z,22.20
2019-06-01T08:59:13.086Z,22.40
2019-06-01T09:01:43.997Z,22.57
2019-06-01T09:04:14.532Z,22.78
2019-06-01T09:06:45.292Z,22.99
2019-06-01T09:09:15.560Z,23.18
2019-06-01T09:11:46.306Z,23.31
2019-06-01T09:14:17.171Z,23.19
2019-06-01T09:16:47.823Z,23.31
2019-06-01T09:19:18.115Z,23.52
2019-06-01T09:21:48.757Z,23.66
2019-06-01T09:24:18.982Z,23.66
2019-06-01T09:26:49.222Z,23.87
2019-06-01T09:29:19.826Z,24.20
2019-06-01T09:31:50.206Z,24.46
2019-06-01T09:34:21.158Z,24.56
2019-06-01T09:36:51.397Z,24.83
2019-06-01T09:39:22.154Z,25.08
2019-06-01T09:41:52.428Z,25.48
2019-06-01T09:44:22.730Z,25.50
2019-06-01T09:46:53.028Z,26.08
2019-06-01T09:49:23.661Z,26.76
2019-06-01T09:51:54.014Z,27.02
2019-06-01T09:54:24.322Z,27.36
2019-06-01T09:56:54.704Z,27.68
2019-06-01T09:59:25.078Z,28.26
2019-06-01T10:01:55.384Z,28.59
2019-06-01T10:04:25.973Z,28.29
2019-06-01T10:06:56.550Z,28.48
2019-06-01T10:09:27.409Z,28.52
2019-06-01T10:11:57.642Z,28.66
2019-06-01T10:14:28.271Z,28.78
2019-06-01T10:16:59.527Z,29.19
2019-06-01T10:19:30.664Z,29.75
2019-06-01T10:22:01.068Z,29.86
2019-06-01T10:24:31.628Z,30.02
2019-06-01T10:27:01.816Z,30.03
2019-06-01T10:29:32.567Z,30.26
2019-06-01T10:32:03.056Z,30.17
2019-06-01T10:34:35.627Z,30.95
2019-06-01T10:37:06.535Z,31.05
2019-06-01T10:39:37.210Z,30.95
2019-06-01T10:42:07.587Z,31.16
2019-06-01T10:44:43.399Z,31.71
2019-06-01T10:47:10.155Z,31.82
2019-06-01T10:49:42.092Z,32.08
2019-06-01T10:52:12.842Z,31.85
2019-06-01T10:54:43.128Z,32.32
2019-06-01T10:57:13.426Z,32.51
2019-06-01T10:59:43.714Z,32.41
2019-06-01T11:02:14.247Z,32.50
2019-06-01T11:04:45.580Z,32.35
2019-06-01T11:07:16.339Z,33.39
2019-06-01T11:09:46.936Z,33.22
2019-06-01T11:12:17.215Z,34.09
2019-06-01T11:14:49.081Z,33.96
2019-06-01T11:17:19.297Z,34.40
2019-06-01T11:19:49.900Z,34.49
2019-06-01T11:22:20.737Z,34.45
2019-06-01T11:24:51.334Z,35.17
2019-06-01T11:27:22.000Z,34.78
2019-06-01T11:29:52.241Z,35.58
2019-06-01T11:32:22.645Z,35.43
2019-06-01T11:34:52.886Z,35.70
2019-06-01T11:37:23.199Z,35.51
2019-06-01T11:39:53.430Z,35.06
2019-06-01T11:42:23.732Z,35.26
2019-06-01T11:44:54.273Z,36.29
2019-06-01T11:47:25.526Z,35.69
2019-06-01T11:49:56.238Z,36.48
2019-06-01T11:52:26.544Z,36.82
2019-06-01T11:54:56.874Z,37.22
2019-06-01T11:57:28.663Z,36.86
2019-06-01T11:59:59.073Z,37.15
2019-06-01T12:02:29.597Z,37.09
2019-06-01T12:04:59.876Z,36.89
2019-06-01T12:07:30.106Z,37.91
2019-06-01T12:10:00.799Z,37.95
2019-06-01T12:12:31.077Z,38.28
2019-06-01T12:15:01.436Z,38.54
2019-06-01T12:17:31.702Z,38.92
2019-06-01T12:20:02.142Z,39.02
2019-06-01T12:22:32.478Z,39.91
2019-06-01T12:25:03.179Z,39.13
2019-06-01T12:27:33.514Z,39.95
2019-06-01T12:30:03.873Z,39.22
2019-06-01T12:32:34.338Z,39.62
2019-06-01T12:35:05.040Z,40.32
2019-06-01T12:37:54.976Z,40.58
2019-06-01T12:40:08.402Z,41.50
2019-06-01T12:42:39.736Z,41.00
2019-06-01T12:45:16.767Z,41.50
2019-06-01T12:47:49.565Z,41.58
2019-06-01T12:50:19.708Z,41.53
2019-06-01T12:52:50.496Z,40.98
2019-06-01T12:55:20.739Z,42.11
2019-06-01T12:57:51.411Z,41.87
2019-06-01T13:00:22.146Z,42.31
2019-06-01T13:03:03.467Z,42.44
2019-06-01T13:05:25.100Z,43.20
2019-06-01T13:08:02.255Z,43.19
2019-06-01T13:10:27.666Z,42.68
2019-06-01T13:12:58.296Z,42.51
2019-06-01T13:15:28.582Z,43.12
2019-06-01T13:17:59.233Z,43.41
2019-06-01T13:20:29.511Z,43.41
2019-06-01T13:23:00.498Z,43.11
2019-06-01T13:25:30.854Z,43.16
2019-06-01T13:28:01.473Z,42.66
2019-06-01T13:30:31.691Z,43.10
2019-06-01T13:33:01.944Z,43.37
2019-06-01T13:35:33.208Z,43.65
2019-06-01T13:38:11.939Z,43.11
2019-06-01T13:40:35.459Z,43.63
2019-06-01T13:43:05.762Z,44.62
2019-06-01T13:45:36.010Z,42.93
2019-06-01T13:48:06.380Z,43.08
2019-06-01T13:50:36.556Z,43.44
2019-06-01T13:53:06.873Z,44.08
2019-06-01T13:55:37.062Z,44.34
2019-06-01T13:58:07.808Z,44.59
2019-06-01T14:00:38.541Z,44.77
2019-06-01T14:03:08.873Z,44.96
2019-06-01T14:05:39.128Z,44.50
2019-06-01T14:08:09.481Z,44.97
2019-06-01T14:10:39.835Z,44.14
2019-06-01T14:13:10.609Z,43.81
2019-06-01T14:15:40.880Z,44.37
2019-06-01T14:18:11.109Z,43.38
2019-06-01T14:20:41.381Z,42.30
2019-06-01T14:23:11.813Z,43.52
2019-06-01T14:25:42.033Z,45.26
2019-06-01T14:28:12.465Z,45.37
2019-06-01T14:30:42.649Z,45.50
2019-06-01T14:33:13.254Z,45.30
2019-06-01T14:35:43.627Z,46.17
2019-06-01T14:38:14.109Z,46.63
2019-06-01T14:40:44.416Z,46.40
2019-06-01T14:43:14.665Z,45.61
2019-06-01T14:45:45.239Z,47.19
2019-06-01T14:48:15.523Z,47.34
2019-06-01T14:50:45.719Z,46.86
2019-06-01T14:53:15.998Z,46.31
2019-06-01T14:55:47.601Z,45.71
2019-06-01T14:58:18.029Z,46.67
2019-06-01T15:00:50.154Z,46.43
2019-06-01T15:03:20.697Z,46.12
2019-06-01T15:05:52.204Z,46.46
2019-06-01T15:08:22.644Z,47.39
2019-06-01T15:10:53.622Z,47.39
2019-06-01T15:13:24.812Z,46.90
2019-06-01T15:15:55.596Z,46.16
2019-06-01T15:18:26.288Z,46.49
2019-06-01T15:20:57.848Z,45.93
2019-06-01T15:23:28.197Z,46.35
2019-06-01T15:25:58.569Z,46.45
2019-06-01T15:28:28.818Z,45.70
2019-06-01T15:31:00.125Z,44.71
2019-06-01T15:33:30.451Z,45.89
2019-06-01T15:36:01.865Z,46.00
2019-06-01T15:38:32.367Z,46.00
2019-06-01T15:41:02.627Z,46.64
2019-06-01T15:43:33.223Z,47.00
2019-06-01T15:46:03.516Z,47.13
2019-06-01T15:48:33.781Z,46.89
2019-06-01T15:51:07.161Z,46.51
2019-06-01T15:53:36.397Z,48.21
2019-06-01T15:56:06.586Z,48.05
2019-06-01T15:58:51.883Z,48.24
2019-06-01T16:01:08.809Z,47.98
2019-06-01T16:03:39.093Z,47.78
2019-06-01T16:06:09.423Z,48.06
2019-06-01T16:08:39.653Z,47.79
2019-06-01T16:11:09.901Z,47.09
2019-06-01T16:13:40.501Z,46.53
2019-06-01T16:16:10.762Z,45.63
2019-06-01T16:18:41.133Z,46.64
2019-06-01T16:21:11.405Z,46.57
2019-06-01T16:23:49.803Z,46.58
2019-06-01T16:26:16.431Z,46.94
2019-06-01T16:28:47.274Z,47.12
2019-06-01T16:31:19.038Z,47.49
2019-06-01T16:33:49.325Z,47.75
2019-06-01T16:36:20.666Z,47.03
2019-06-01T16:38:50.919Z,47.00
2019-06-01T16:41:21.236Z,46.04
2019-06-01T16:43:51.469Z,46.09
2019-06-01T16:46:21.647Z,45.04
2019-06-01T16:48:52.216Z,44.85
2019-06-01T16:51:22.950Z,44.32
2019-06-01T16:53:53.262Z,43.90
2019-06-01T16:56:23.439Z,44.51
2019-06-01T16:58:53.917Z,44.62
2019-06-01T17:01:24.554Z,44.69
2019-06-01T17:03:54.929Z,44.13
2019-06-01T17:06:25.219Z,44.50
2019-06-01T17:08:56.654Z,44.31
2019-06-01T17:11:27.267Z,42.94
2019-06-01T17:13:58.628Z,42.85
2019-06-01T17:16:29.068Z,42.58
2019-06-01T17:18:59.449Z,42.78
2019-06-01T17:21:30.022Z,43.97
2019-06-01T17:24:01.585Z,43.59
2019-06-01T17:26:32.086Z,43.36
2019-06-01T17:29:02.386Z,43.06
2019-06-01T17:31:32.924Z,42.70
2019-06-01T17:34:04.536Z,43.12
2019-06-01T17:36:34.933Z,43.34
2019-06-01T17:39:08.075Z,42.54
2019-06-01T17:41:38.398Z,43.17
2019-06-01T17:44:09.049Z,42.71
2019-06-01T17:46:52.942Z,42.48
2019-06-01T17:49:12.398Z,41.94
2019-06-01T17:51:42.711Z,41.74
2019-06-01T17:54:12.986Z,41.06
2019-06-01T17:56:43.351Z,40.53
2019-06-01T17:59:13.794Z,37.40
2019-06-01T18:01:43.977Z,34.99
2019-06-01T18:04:14.195Z,33.19
2019-06-01T18:06:44.456Z,32.28
2019-06-01T18:09:14.739Z,31.41
2019-06-01T18:11:45.150Z,30.89
2019-06-01T18:14:15.576Z,30.52
2019-06-01T18:16:45.865Z,30.12
2019-06-01T18:19:16.141Z,29.82
2019-06-01T18:21:46.519Z,29.49
2019-06-01T18:24:17.155Z,29.30
2019-06-01T18:26:47.723Z,29.06
2019-06-01T18:29:17.945Z,28.80
2019-06-01T18:31:48.628Z,28.64
2019-06-01T18:34:19.116Z,28.50
2019-06-01T18:36:49.780Z,28.30
2019-06-01T18:39:20.290Z,28.16
2019-06-01T18:41:50.635Z,27.94
2019-06-01T18:44:20.928Z,27.70
2019-06-01T18:46:51.657Z,27.58
2019-06-01T18:49:22.365Z,27.35
2019-06-01T18:51:53.090Z,27.23
2019-06-01T18:54:23.467Z,27.07
2019-06-01T18:57:09.005Z,26.83
2019-06-01T18:59:25.906Z,26.65
2019-06-01T19:01:56.635Z,26.46
2019-06-01T19:04:26.886Z,26.34
2019-06-01T19:06:58.074Z,26.23
2019-06-01T19:09:28.820Z,26.05
2019-06-01T19:11:59.450Z,25.90
2019-06-01T19:14:29.752Z,25.70
2019-06-01T19:17:00.307Z,25.66
2019-06-01T19:19:31.105Z,25.53
2019-06-01T19:22:01.687Z,25.40
2019-06-01T19:24:31.964Z,25.19
2019-06-01T19:27:02.237Z,25.02
2019-06-01T19:29:32.831Z,24.84
2019-06-01T19:32:03.709Z,24.67
2019-06-01T19:34:34.343Z,24.45
2019-06-01T19:37:04.754Z,24.42
2019-06-01T19:39:37.658Z,24.25
2019-06-01T19:42:09.109Z,24.24
2019-06-01T19:44:39.469Z,24.14
2019-06-01T19:47:10.030Z,23.98
2019-06-01T19:49:43.760Z,23.87
2019-06-01T19:52:12.721Z,23.78
2019-06-01T19:54:43.093Z,23.64
2019-06-01T19:57:17.941Z,23.52
2019-06-01T19:59:45.237Z,23.53
2019-06-01T20:02:29.305Z,23.43
2019-06-01T20:04:47.384Z,23.30
2019-06-01T20:07:19.209Z,23.19
2019-06-01T20:09:49.487Z,23.04
2019-06-01T20:12:20.490Z,22.95
2019-06-01T20:14:52.055Z,22.89
2019-06-01T20:17:26.090Z,22.79
2019-06-01T20:19:54.638Z,22.81
2019-06-01T20:22:25.239Z,22.81
2019-06-01T20:24:55.431Z,22.88
2019-06-01T20:27:25.954Z,22.78
2019-06-01T20:29:56.205Z,22.82
2019-06-01T20:32:26.561Z,22.82
2019-06-01T20:34:56.835Z,22.83
2019-06-01T20:37:27.167Z,22.89
2019-06-01T20:39:57.731Z,22.89
2019-06-01T20:42:32.527Z,22.94
2019-06-01T20:45:00.092Z,22.92
2019-06-01T20:47:30.751Z,22.78
2019-06-01T20:50:01.013Z,22.73
2019-06-01T20:52:31.743Z,22.53
2019-06-01T20:55:01.995Z,22.33
2019-06-01T20:57:32.355Z,22.08
2019-06-01T21:00:02.650Z,21.91
2019-06-01T21:02:34.350Z,21.80
2019-06-01T21:05:05.310Z,21.67
2019-06-01T21:07:35.595Z,21.48
2019-06-01T21:10:09.102Z,21.41
2019-06-01T21:12:45.493Z,21.29
2019-06-01T21:15:11.338Z,21.23
2019-06-01T21:17:41.630Z,21.25
2019-06-01T21:20:12.330Z,21.21
2019-06-01T21:22:42.939Z,21.15
2019-06-01T21:25:14.739Z,21.14
2019-06-01T21:27:45.170Z,21.09
2019-06-01T21:30:16.959Z,20.96
2019-06-01T21:32:48.060Z,20.80
2019-06-01T21:35:19.354Z,20.70
2019-06-01T21:37:49.961Z,20.70
2019-06-01T21:40:21.402Z,20.60
2019-06-01T21:43:03.115Z,20.47
2019-06-01T21:45:25.806Z,20.44
2019-06-01T21:47:56.151Z,20.35
2019-06-01T21:50:26.809Z,20.27
2019-06-01T21:52:57.117Z,20.18
2019-06-01T21:55:28.406Z,20.08
2019-06-01T21:57:58.694Z,20.01
2019-06-01T22:00:37.042Z,19.94
2019-06-01T22:03:09.484Z,19.91
2019-06-01T22:05:39.747Z,19.85
2019-06-01T22:08:10.122Z,19.75
2019-06-01T22:10:40.303Z,19.67
2019-06-01T22:13:18.802Z,19.58
2019-06-01T22:15:42.853Z,19.53
2019-06-01T22:18:13.211Z,19.49
2019-06-01T22:20:44.600Z,19.41
2019-06-01T22:23:14.842Z,19.49
2019-06-01T22:25:45.075Z,19.69
2019-06-01T22:28:15.283Z,19.72
2019-06-01T22:30:45.492Z,19.65
2019-06-01T22:33:15.753Z,19.56
2019-06-01T22:35:46.422Z,19.49
2019-06-01T22:38:16.789Z,19.47
2019-06-01T22:40:47.015Z,19.36
2019-06-01T22:43:17.335Z,19.28
2019-06-01T22:45:47.591Z,19.26
2019-06-01T22:48:20.360Z,19.16
2019-06-01T22:50:50.678Z,19.09
2019-06-01T22:53:22.005Z,19.01
2019-06-01T22:55:53.303Z,18.92
2019-06-01T22:58:23.511Z,18.85
2019-06-01T23:00:54.294Z,18.74
2019-06-01T23:03:25.736Z,18.65
2019-06-01T23:05:56.424Z,18.57
2019-06-01T23:08:27.390Z,18.55
2019-06-01T23:10:58.187Z,18.45
2019-06-01T23:13:28.435Z,18.39
2019-06-01T23:15:58.738Z,18.34
2019-06-01T23:18:29.879Z,18.35
2019-06-01T23:21:00.107Z,18.37
2019-06-01T23:23:30.347Z,18.32
2019-06-01T23:26:00.951Z,18.32
2019-06-01T23:28:32.421Z,18.30
2019-06-01T23:31:02.941Z,18.28
2019-06-01T23:33:33.654Z,18.18
2019-06-01T23:36:03.870Z,18.13
2019-06-01T23:38:34.179Z,18.04
2019-06-01T23:41:05.389Z,18.00
2019-06-01T23:43:36.303Z,17.93
2019-06-01T23:46:06.571Z,17.87
2019-06-01T23:48:37.730Z,17.82
2019-06-01T23:51:07.940Z,17.78
2019-06-01T23:53:38.171Z,17.72
2019-06-01T23:56:08.386Z,17.69
2019-06-01T23:58:38.585Z,17.69
